createdAt,value
2019-04-07T00:00:41.775Z,32.57
2019-04-07T00:03:08.493Z,38.37
2019-04-07T00:05:35.668Z,28.63
2019-04-07T00:08:03.358Z,36.73
2019-04-07T00:10:30.440Z,37.90
2019-04-07T00:12:57.394Z,27.50
2019-04-07T00:15:24.219Z,33.63
2019-04-07T00:17:51.073Z,29.33
2019-04-07T00:20:17.754Z,28.90
2019-04-07T00:22:44.377Z,24.27
2019-04-07T00:25:11.863Z,26.13
2019-04-07T00:27:39.155Z,29.83
2019-04-07T00:30:06.839Z,34.57
2019-04-07T00:32:35.007Z,29.57
2019-04-07T00:35:05.490Z,28.40
2019-04-07T00:37:32.738Z,28.60
2019-04-07T00:39:59.698Z,31.07
2019-04-07T00:42:27.371Z,26.47
2019-04-07T00:44:55.516Z,26.57
2019-04-07T00:47:22.067Z,27.83
2019-04-07T00:49:48.626Z,28.90
2019-04-07T00:52:17.327Z,28.00
2019-04-07T00:54:44.216Z,30.10
2019-04-07T00:57:10.999Z,26.77
2019-04-07T00:59:37.587Z,26.20
2019-04-07T01:02:04.472Z,25.40
2019-04-07T01:04:31.031Z,31.20
2019-04-07T01:06:57.620Z,28.00
2019-04-07T01:09:24.538Z,27.63
2019-04-07T01:11:52.260Z,26.30
2019-04-07T01:14:19.298Z,24.87
2019-04-07T01:16:46.143Z,24.93
2019-04-07T01:19:13.371Z,23.53
2019-04-07T01:21:40.548Z,28.83
2019-04-07T01:24:07.273Z,26.60
2019-04-07T01:26:34.052Z,28.33
2019-04-07T01:29:01.399Z,30.07
2019-04-07T01:31:28.773Z,23.40
2019-04-07T01:33:55.371Z,29.10
2019-04-07T01:36:22.588Z,29.40
2019-04-07T01:38:49.446Z,31.93
2019-04-07T01:41:18.604Z,28.07
2019-04-07T01:43:48.082Z,31.03
2019-04-07T01:46:17.514Z,33.13
2019-04-07T01:48:46.829Z,28.97
2019-04-07T01:51:15.749Z,30.77
2019-04-07T01:53:44.598Z,31.13
2019-04-07T01:56:14.041Z,26.10
2019-04-07T01:58:42.882Z,27.97
2019-04-07T02:01:12.044Z,29.77
2019-04-07T02:03:41.925Z,27.30
2019-04-07T02:06:12.015Z,30.37
2019-04-07T02:08:41.722Z,30.20
2019-04-07T02:11:10.619Z,26.73
2019-04-07T02:13:40.450Z,28.17
2019-04-07T02:16:10.280Z,26.50
2019-04-07T02:18:38.917Z,27.70
2019-04-07T02:21:08.444Z,25.80
2019-04-07T02:23:37.275Z,28.83
2019-04-07T02:26:06.053Z,30.27
2019-04-07T02:28:35.045Z,24.63
2019-04-07T02:31:06.101Z,26.60
2019-04-07T02:33:35.002Z,31.40
2019-04-07T02:36:15.703Z,31.37
2019-04-07T02:38:34.570Z,24.83
2019-04-07T02:41:04.216Z,28.57
2019-04-07T02:43:33.930Z,30.40
2019-04-07T02:46:02.806Z,30.23
2019-04-07T02:48:32.240Z,26.53
2019-04-07T02:51:01.311Z,27.67
2019-04-07T02:53:30.805Z,28.73
2019-04-07T02:55:57.814Z,35.80
2019-04-07T02:58:27.157Z,35.80
2019-04-07T03:00:56.219Z,36.20
2019-04-07T03:03:24.983Z,45.03
2019-04-07T03:05:55.076Z,49.93
2019-04-07T03:08:25.067Z,42.03
2019-04-07T03:10:55.482Z,52.67
2019-04-07T03:13:24.588Z,54.17
2019-04-07T03:15:53.470Z,61.17
2019-04-07T03:18:26.246Z,76.40
2019-04-07T03:20:53.836Z,66.20
2019-04-07T03:23:22.783Z,52.80
2019-04-07T03:25:51.345Z,46.07
2019-04-07T03:28:19.941Z,46.07
2019-04-07T03:30:48.939Z,44.63
2019-04-07T03:33:21.177Z,56.27
2019-04-07T03:35:50.952Z,53.10
2019-04-07T03:38:19.014Z,53.70
2019-04-07T03:40:48.202Z,55.53
2019-04-07T03:43:17.716Z,40.97
2019-04-07T03:45:46.718Z,38.70
2019-04-07T03:48:15.795Z,41.57
2019-04-07T03:50:44.825Z,38.97
2019-04-07T03:53:13.611Z,39.50
2019-04-07T03:55:42.427Z,32.20
2019-04-07T03:58:12.203Z,28.87
2019-04-07T04:00:45.217Z,41.23
2019-04-07T04:03:14.944Z,55.20
2019-04-07T04:05:45.166Z,56.00
2019-04-07T04:08:13.983Z,51.83
2019-04-07T04:10:43.531Z,47.30
2019-04-07T04:13:12.349Z,45.23
2019-04-07T04:15:41.540Z,41.10
2019-04-07T04:18:08.298Z,44.67
2019-04-07T04:20:34.914Z,40.70
2019-04-07T04:23:01.531Z,34.23
2019-04-07T04:25:28.354Z,34.90
2019-04-07T04:27:55.110Z,32.83
2019-04-07T04:30:21.783Z,34.50
2019-04-07T04:32:48.514Z,39.63
2019-04-07T04:35:15.090Z,37.13
2019-04-07T04:37:48.205Z,38.63
2019-04-07T04:40:11.374Z,44.37
2019-04-07T04:42:37.989Z,38.70
2019-04-07T04:45:08.037Z,41.70
2019-04-07T04:47:35.079Z,36.63
2019-04-07T04:50:06.700Z,36.67
2019-04-07T04:52:34.777Z,36.97
2019-04-07T04:55:02.028Z,37.37
2019-04-07T04:57:29.019Z,34.87
2019-04-07T04:59:55.975Z,36.53
2019-04-07T05:02:23.562Z,28.90
2019-04-07T05:04:50.540Z,32.67
2019-04-07T05:07:17.138Z,37.20
2019-04-07T05:09:48.874Z,29.17
2019-04-07T05:12:12.811Z,29.27
2019-04-07T05:14:40.073Z,30.77
2019-04-07T05:17:07.389Z,29.07
2019-04-07T05:19:34.443Z,26.13
2019-04-07T05:22:01.362Z,27.57
2019-04-07T05:24:28.411Z,25.57
2019-04-07T05:26:55.812Z,26.67
2019-04-07T05:29:22.844Z,28.50
2019-04-07T05:31:50.298Z,30.23
2019-04-07T05:34:20.408Z,24.67
2019-04-07T05:36:45.799Z,23.23
2019-04-07T05:39:12.770Z,27.30
2019-04-07T05:41:39.600Z,30.07
2019-04-07T05:44:06.398Z,32.33
2019-04-07T05:46:33.558Z,25.07
2019-04-07T05:49:00.581Z,24.30
2019-04-07T05:51:30.041Z,25.93
2019-04-07T05:53:55.975Z,25.90
2019-04-07T05:56:25.889Z,33.73
2019-04-07T05:58:51.705Z,28.40
2019-04-07T06:01:22.574Z,32.40
2019-04-07T06:03:47.888Z,28.73
2019-04-07T06:06:14.872Z,36.37
2019-04-07T06:08:42.241Z,26.73
2019-04-07T06:11:08.947Z,27.07
2019-04-07T06:13:35.619Z,29.23
2019-04-07T06:16:03.053Z,28.67
2019-04-07T06:18:33.363Z,30.70
2019-04-07T06:20:58.612Z,30.27
2019-04-07T06:23:28.564Z,30.13
2019-04-07T06:25:57.164Z,28.43
2019-04-07T06:28:22.762Z,30.50
2019-04-07T06:30:49.590Z,32.47
2019-04-07T06:33:16.358Z,29.93
2019-04-07T06:35:44.993Z,29.53
2019-04-07T06:38:12.274Z,30.40
2019-04-07T06:40:39.330Z,28.20
2019-04-07T06:43:06.344Z,32.60
2019-04-07T06:45:36.127Z,27.30
2019-04-07T06:48:07.715Z,30.83
2019-04-07T06:50:45.462Z,33.33
2019-04-07T06:53:10.600Z,31.77
2019-04-07T06:55:36.721Z,27.40
2019-04-07T06:58:07.559Z,30.03
2019-04-07T07:00:36.457Z,34.93
2019-04-07T07:03:05.325Z,29.20
2019-04-07T07:05:35.985Z,31.60
2019-04-07T07:08:05.032Z,35.97
2019-04-07T07:10:37.736Z,31.37
2019-04-07T07:13:09.408Z,39.73
2019-04-07T07:15:36.423Z,39.33
2019-04-07T07:18:05.784Z,33.40
2019-04-07T07:20:34.438Z,39.03
2019-04-07T07:23:03.880Z,34.07
2019-04-07T07:25:32.160Z,62.43
2019-04-07T07:28:01.582Z,42.17
2019-04-07T07:30:28.473Z,39.37
2019-04-07T07:32:55.277Z,31.73
2019-04-07T07:35:22.356Z,30.70
2019-04-07T07:37:50.022Z,31.33
2019-04-07T07:40:18.330Z,37.90
2019-04-07T07:42:48.649Z,31.93
2019-04-07T07:45:14.233Z,29.57
2019-04-07T07:47:41.582Z,33.00
2019-04-07T07:50:10.221Z,28.17
2019-04-07T07:52:37.662Z,29.63
2019-04-07T07:55:06.089Z,27.93
2019-04-07T07:57:32.819Z,28.40
2019-04-07T08:00:00.287Z,26.33
2019-04-07T08:02:29.030Z,31.40
2019-04-07T08:04:58.387Z,26.83
2019-04-07T08:07:24.743Z,26.80
2019-04-07T08:09:54.062Z,26.27
2019-04-07T08:12:20.640Z,28.43
2019-04-07T08:14:50.398Z,26.57
2019-04-07T08:17:17.204Z,24.47
2019-04-07T08:19:45.406Z,30.77
2019-04-07T08:22:25.329Z,28.80
2019-04-07T08:24:42.035Z,29.63
2019-04-07T08:27:10.506Z,27.90
2019-04-07T08:29:39.021Z,29.77
2019-04-07T08:32:06.608Z,27.57
2019-04-07T08:34:33.473Z,23.13
2019-04-07T08:37:00.854Z,22.50
2019-04-07T08:39:32.376Z,21.70
2019-04-07T08:41:57.219Z,18.90
2019-04-07T08:44:27.439Z,22.73
2019-04-07T08:46:52.941Z,21.27
2019-04-07T08:49:23.696Z,24.17
2019-04-07T08:51:48.526Z,23.00
2019-04-07T08:54:16.930Z,24.50
2019-04-07T08:56:43.687Z,18.73
2019-04-07T08:59:13.901Z,21.73
2019-04-07T09:01:38.946Z,23.50
2019-04-07T09:04:09.359Z,24.20
2019-04-07T09:06:36.206Z,19.30
2019-04-07T09:09:07.915Z,19.20
2019-04-07T09:11:34.844Z,17.60
2019-04-07T09:14:04.197Z,17.47
2019-04-07T09:16:32.589Z,21.77
2019-04-07T09:19:04.976Z,21.63
2019-04-07T09:21:38.726Z,19.00
2019-04-07T09:24:02.530Z,22.40
2019-04-07T09:26:31.127Z,17.63
2019-04-07T09:28:59.613Z,18.30
2019-04-07T09:31:28.295Z,17.10
2019-04-07T09:33:58.663Z,22.50
2019-04-07T09:36:27.653Z,16.77
2019-04-07T09:39:01.435Z,20.97
2019-04-07T09:41:29.525Z,17.13
2019-04-07T09:44:01.147Z,15.67
2019-04-07T09:46:29.048Z,23.90
2019-04-07T09:48:57.700Z,20.33
2019-04-07T09:51:26.558Z,17.63
2019-04-07T09:53:55.653Z,18.17
2019-04-07T09:56:29.191Z,12.90
2019-04-07T09:58:55.617Z,14.87
2019-04-07T10:01:27.822Z,15.97
2019-04-07T10:03:55.553Z,20.47
2019-04-07T10:06:27.628Z,16.83
2019-04-07T10:08:58.883Z,14.47
2019-04-07T10:11:28.517Z,22.97
2019-04-07T10:13:57.781Z,18.70
2019-04-07T10:16:27.040Z,25.50
2019-04-07T10:18:57.652Z,17.37
2019-04-07T10:21:26.487Z,13.23
2019-04-07T10:23:55.303Z,15.57
2019-04-07T10:26:24.399Z,20.40
2019-04-07T10:28:53.246Z,14.10
2019-04-07T10:31:22.446Z,22.73
2019-04-07T10:33:51.487Z,18.33
2019-04-07T10:36:20.642Z,23.03
2019-04-07T10:38:51.453Z,24.93
2019-04-07T10:41:20.738Z,19.20
2019-04-07T10:43:50.287Z,16.70
2019-04-07T10:46:19.121Z,15.27
2019-04-07T10:48:47.771Z,19.10
2019-04-07T10:51:17.483Z,20.33
2019-04-07T10:53:46.243Z,18.43
2019-04-07T10:56:14.733Z,15.90
2019-04-07T10:58:43.615Z,19.93
2019-04-07T11:01:12.631Z,19.80
2019-04-07T11:03:41.327Z,19.27
2019-04-07T11:06:09.895Z,20.60
2019-04-07T11:08:38.416Z,16.27
2019-04-07T11:11:07.879Z,20.77
2019-04-07T11:13:36.520Z,12.90
2019-04-07T11:16:08.146Z,19.93
2019-04-07T11:18:36.740Z,16.23
2019-04-07T11:21:05.546Z,15.90
2019-04-07T11:23:34.852Z,15.53
2019-04-07T11:26:04.556Z,17.67
2019-04-07T11:28:34.083Z,15.17
2019-04-07T11:31:02.566Z,17.93
2019-04-07T11:33:31.914Z,19.17
2019-04-07T11:36:00.708Z,14.30
2019-04-07T11:38:32.289Z,16.73
2019-04-07T11:41:02.554Z,17.00
2019-04-07T11:43:32.534Z,22.60
2019-04-07T11:46:03.274Z,17.03
2019-04-07T11:48:33.104Z,14.50
2019-04-07T11:51:02.102Z,14.90
2019-04-07T11:53:30.775Z,16.13
2019-04-07T11:56:01.476Z,12.97
2019-04-07T11:58:33.218Z,14.00
2019-04-07T12:01:00.722Z,14.13
2019-04-07T12:03:29.948Z,20.07
2019-04-07T12:05:59.792Z,14.30
2019-04-07T12:08:33.390Z,19.40
2019-04-07T12:11:02.834Z,21.80
2019-04-07T12:13:31.284Z,14.73
2019-04-07T12:16:00.410Z,16.10
2019-04-07T12:18:29.780Z,16.90
2019-04-07T12:21:02.486Z,13.80
2019-04-07T12:23:29.182Z,14.70
2019-04-07T12:25:57.894Z,14.30
2019-04-07T12:28:26.833Z,14.33
2019-04-07T12:30:56.364Z,19.53
2019-04-07T12:33:25.308Z,19.07
2019-04-07T12:35:56.039Z,18.47
2019-04-07T12:38:25.267Z,19.40
2019-04-07T12:41:03.986Z,13.40
2019-04-07T12:43:24.976Z,15.13
2019-04-07T12:45:53.756Z,15.20
2019-04-07T12:48:23.105Z,14.47
2019-04-07T12:50:52.339Z,12.67
2019-04-07T12:53:21.916Z,18.03
2019-04-07T12:55:57.581Z,16.33
2019-04-07T12:58:21.457Z,18.50
2019-04-07T13:00:57.771Z,11.73
2019-04-07T13:03:21.154Z,14.40
2019-04-07T13:05:50.895Z,16.07
2019-04-07T13:08:22.590Z,12.60
2019-04-07T13:10:51.177Z,15.07
2019-04-07T13:13:22.280Z,14.27
2019-04-07T13:15:51.284Z,19.40
2019-04-07T13:18:20.571Z,11.87
2019-04-07T13:20:51.053Z,18.23
2019-04-07T13:23:19.795Z,11.60
2019-04-07T13:25:53.173Z,20.50
2019-04-07T13:28:19.543Z,13.27
2019-04-07T13:30:48.830Z,14.57
2019-04-07T13:33:20.390Z,13.20
2019-04-07T13:35:48.880Z,17.83
2019-04-07T13:38:17.625Z,13.57
2019-04-07T13:40:47.257Z,16.10
2019-04-07T13:43:16.557Z,21.10
2019-04-07T13:45:46.288Z,14.10
2019-04-07T13:48:17.556Z,13.93
2019-04-07T13:50:44.954Z,13.93
2019-04-07T13:53:14.558Z,14.07
2019-04-07T13:55:44.173Z,16.20
2019-04-07T13:58:14.039Z,16.57
2019-04-07T14:00:42.940Z,19.27
2019-04-07T14:03:14.523Z,13.90
2019-04-07T14:05:43.184Z,12.67
2019-04-07T14:08:11.817Z,19.30
2019-04-07T14:10:39.331Z,21.73
2019-04-07T14:13:11.002Z,19.57
2019-04-07T14:15:39.623Z,14.40
2019-04-07T14:18:08.971Z,15.47
2019-04-07T14:20:38.657Z,22.73
2019-04-07T14:23:08.465Z,14.73
2019-04-07T14:25:37.533Z,13.47
2019-04-07T14:28:06.155Z,20.20
2019-04-07T14:30:35.446Z,18.83
2019-04-07T14:33:04.607Z,18.03
2019-04-07T14:35:33.607Z,18.13
2019-04-07T14:38:02.658Z,21.83
2019-04-07T14:40:31.865Z,12.77
2019-04-07T14:43:01.144Z,14.03
2019-04-07T14:45:29.992Z,13.23
2019-04-07T14:48:02.160Z,13.87
2019-04-07T14:50:32.092Z,13.97
2019-04-07T14:53:00.940Z,11.03
2019-04-07T14:55:30.287Z,14.30
2019-04-07T14:57:59.059Z,12.57
2019-04-07T15:00:28.121Z,12.00
2019-04-07T15:02:55.450Z,16.87
2019-04-07T15:05:25.369Z,19.53
2019-04-07T15:07:57.947Z,14.77
2019-04-07T15:10:25.038Z,16.60
2019-04-07T15:12:53.579Z,13.97
2019-04-07T15:15:21.281Z,10.57
2019-04-07T15:17:48.814Z,17.67
2019-04-07T15:20:17.636Z,18.17
2019-04-07T15:22:46.831Z,16.50
2019-04-07T15:25:13.345Z,12.77
2019-04-07T15:27:40.473Z,20.70
2019-04-07T15:30:13.266Z,15.03
2019-04-07T15:32:38.275Z,12.93
2019-04-07T15:35:06.263Z,16.27
2019-04-07T15:37:33.666Z,12.63
2019-04-07T15:40:02.677Z,21.17
2019-04-07T15:42:36.020Z,13.67
2019-04-07T15:44:57.756Z,23.37
2019-04-07T15:47:24.456Z,15.00
2019-04-07T15:49:51.357Z,16.47
2019-04-07T15:52:19.593Z,14.33
2019-04-07T15:54:46.874Z,11.83
2019-04-07T15:57:13.507Z,32.87
2019-04-07T15:59:42.378Z,26.00
2019-04-07T16:02:11.229Z,14.27
2019-04-07T16:04:38.276Z,12.80
2019-04-07T16:07:05.190Z,14.00
2019-04-07T16:09:41.992Z,24.67
2019-04-07T16:12:01.907Z,16.03
2019-04-07T16:14:28.663Z,14.97
2019-04-07T16:16:55.520Z,15.17
2019-04-07T16:19:35.055Z,13.77
2019-04-07T16:21:52.322Z,14.00
2019-04-07T16:24:21.942Z,11.77
2019-04-07T16:26:47.939Z,17.67
2019-04-07T16:29:17.772Z,17.27
2019-04-07T16:31:43.648Z,26.33
2019-04-07T16:34:10.745Z,17.80
2019-04-07T16:36:38.394Z,14.80
2019-04-07T16:39:09.330Z,19.73
2019-04-07T16:41:36.794Z,15.67
2019-04-07T16:44:06.989Z,17.27
2019-04-07T16:46:32.532Z,15.00
2019-04-07T16:48:59.794Z,17.60
2019-04-07T16:51:29.439Z,18.03
2019-04-07T16:53:57.226Z,21.60
2019-04-07T16:56:23.843Z,19.23
2019-04-07T16:58:50.461Z,17.17
2019-04-07T17:01:17.425Z,15.73
2019-04-07T17:03:45.261Z,13.67
2019-04-07T17:06:12.470Z,17.50
2019-04-07T17:08:44.149Z,16.17
2019-04-07T17:11:11.128Z,14.43
2019-04-07T17:13:42.672Z,23.83
2019-04-07T17:16:10.996Z,20.40
2019-04-07T17:18:41.755Z,13.33
2019-04-07T17:21:13.988Z,14.97
2019-04-07T17:23:45.512Z,16.07
2019-04-07T17:26:13.640Z,19.60
2019-04-07T17:28:44.612Z,20.40
2019-04-07T17:31:09.645Z,15.90
2019-04-07T17:33:37.925Z,19.07
2019-04-07T17:36:06.620Z,18.57
2019-04-07T17:38:38.266Z,18.00
2019-04-07T17:41:07.923Z,16.53
2019-04-07T17:43:47.327Z,18.27
2019-04-07T17:46:06.665Z,17.80
2019-04-07T17:48:41.000Z,18.10
2019-04-07T17:51:07.760Z,20.40
2019-04-07T17:53:38.105Z,17.40
2019-04-07T17:56:07.165Z,27.03
2019-04-07T18:01:24.685Z,24.77
2019-04-07T18:03:56.151Z,23.30
2019-04-07T18:06:24.065Z,19.23
2019-04-07T18:09:03.969Z,22.63
2019-04-07T18:11:25.123Z,23.60
2019-04-07T18:13:56.648Z,20.70
2019-04-07T18:16:22.549Z,23.33
2019-04-07T18:18:56.258Z,33.43
2019-04-07T18:21:23.168Z,34.17
2019-04-07T18:23:53.933Z,37.93
2019-04-07T18:26:20.716Z,31.43
2019-04-07T18:28:53.343Z,31.80
2019-04-07T18:31:20.078Z,44.07
2019-04-07T18:33:50.742Z,37.43
2019-04-07T18:36:19.584Z,38.90
2019-04-07T18:38:50.260Z,52.17
2019-04-07T18:41:20.724Z,48.97
2019-04-07T18:43:57.821Z,51.43
2019-04-07T18:46:21.400Z,50.53
2019-04-07T18:48:50.177Z,54.33
2019-04-07T18:51:20.099Z,49.80
2019-04-07T18:53:48.900Z,50.77
2019-04-07T18:56:20.097Z,46.73
2019-04-07T18:58:50.865Z,46.20
2019-04-07T19:01:18.647Z,49.97
2019-04-07T19:03:51.040Z,41.93
2019-04-07T19:06:18.110Z,53.70
2019-04-07T19:08:49.418Z,44.47
2019-04-07T19:11:18.197Z,34.90
2019-04-07T19:13:47.984Z,29.73
2019-04-07T19:16:20.468Z,31.57
2019-04-07T19:18:48.807Z,37.63
2019-04-07T19:21:18.327Z,31.00
2019-04-07T19:23:47.257Z,31.90
2019-04-07T19:26:18.200Z,30.73
2019-04-07T19:28:46.560Z,45.77
2019-04-07T19:31:17.481Z,42.47
2019-04-07T19:33:45.593Z,33.73
2019-04-07T19:36:16.774Z,29.63
2019-04-07T19:38:47.503Z,26.47
2019-04-07T19:41:15.398Z,24.83
2019-04-07T19:43:44.657Z,23.53
2019-04-07T19:46:13.538Z,30.50
2019-04-07T19:48:42.754Z,30.63
2019-04-07T19:51:11.535Z,22.27
2019-04-07T19:53:43.246Z,26.23
2019-04-07T19:56:10.274Z,22.70
2019-04-07T19:58:39.459Z,28.00
2019-04-07T20:01:08.368Z,26.03
2019-04-07T20:03:39.876Z,21.53
2019-04-07T20:06:07.990Z,19.77
2019-04-07T20:08:37.435Z,28.73
2019-04-07T20:11:06.381Z,24.60
2019-04-07T20:13:39.501Z,21.17
2019-04-07T20:16:08.191Z,23.80
2019-04-07T20:18:37.402Z,27.37
2019-04-07T20:21:08.285Z,20.93
2019-04-07T20:23:37.123Z,22.10
2019-04-07T20:26:05.948Z,24.10
2019-04-07T20:28:34.561Z,29.70
2019-04-07T20:31:04.370Z,55.93
2019-04-07T20:33:34.452Z,37.53
2019-04-07T20:36:03.216Z,24.03
2019-04-07T20:38:31.932Z,25.00
2019-04-07T20:41:00.674Z,28.83
2019-04-07T20:43:29.265Z,28.40
2019-04-07T20:45:58.762Z,29.83
2019-04-07T20:48:31.601Z,28.80
2019-04-07T20:50:58.349Z,45.60
2019-04-07T20:53:29.697Z,39.20
2019-04-07T20:55:58.214Z,40.77
2019-04-07T20:58:41.606Z,41.20
2019-04-07T21:01:02.457Z,40.23
2019-04-07T21:03:28.878Z,47.23
2019-04-07T21:05:58.123Z,44.60
2019-04-07T21:08:30.223Z,53.03
2019-04-07T21:10:58.110Z,42.80
2019-04-07T21:13:26.795Z,41.33
2019-04-07T21:15:55.427Z,43.53
2019-04-07T21:18:24.349Z,36.77
2019-04-07T21:20:54.815Z,37.00
2019-04-07T21:23:23.801Z,43.63
2019-04-07T21:25:55.112Z,46.03
2019-04-07T21:28:23.360Z,45.27
2019-04-07T21:30:52.014Z,47.53
2019-04-07T21:33:23.792Z,46.00
2019-04-07T21:35:52.494Z,55.77
2019-04-07T21:38:24.252Z,50.90
2019-04-07T21:40:52.044Z,57.70
2019-04-07T21:43:24.314Z,55.93
2019-04-07T21:45:54.180Z,60.20
2019-04-07T21:48:22.083Z,59.40
2019-04-07T21:50:51.592Z,62.03
2019-04-07T21:53:22.531Z,61.93
2019-04-07T21:55:51.048Z,55.87
2019-04-07T21:58:22.024Z,52.57
2019-04-07T22:00:51.008Z,47.63
2019-04-07T22:03:21.031Z,67.97
2019-04-07T22:05:49.039Z,60.70
2019-04-07T22:08:19.970Z,63.73
2019-04-07T22:10:47.894Z,60.93
2019-04-07T22:13:15.515Z,67.13
2019-04-07T22:15:48.223Z,68.03
2019-04-07T22:18:11.143Z,62.27
2019-04-07T22:20:39.021Z,56.40
2019-04-07T22:23:09.279Z,55.10
2019-04-07T22:25:40.949Z,58.30
2019-04-07T22:28:08.079Z,50.27
2019-04-07T22:30:40.111Z,50.20
2019-04-07T22:33:04.143Z,63.10
2019-04-07T22:35:31.977Z,66.37
2019-04-07T22:37:58.914Z,55.23
2019-04-07T22:40:26.650Z,76.17
2019-04-07T22:42:54.164Z,90.10
2019-04-07T22:45:25.310Z,76.97
2019-04-07T22:47:52.441Z,69.20
2019-04-07T22:50:18.674Z,67.50
2019-04-07T22:52:49.201Z,65.17
2019-04-07T22:55:14.371Z,60.50
2019-04-07T22:57:41.958Z,64.47
2019-04-07T23:00:12.790Z,66.10
2019-04-07T23:02:42.308Z,61.10
2019-04-07T23:05:09.604Z,62.07
2019-04-07T23:07:36.273Z,59.23
2019-04-07T23:10:04.648Z,53.97
2019-04-07T23:12:32.849Z,59.43
2019-04-07T23:14:59.771Z,63.47
2019-04-07T23:17:26.353Z,54.27
2019-04-07T23:19:53.174Z,59.50
2019-04-07T23:22:20.126Z,62.10
2019-04-07T23:24:47.433Z,62.40
2019-04-07T23:27:14.569Z,57.43
2019-04-07T23:29:44.418Z,55.80
2019-04-07T23:32:11.705Z,61.90
2019-04-07T23:34:39.420Z,56.37
2019-04-07T23:37:06.540Z,56.17
2019-04-07T23:39:33.461Z,59.87
2019-04-07T23:42:00.692Z,62.27
2019-04-07T23:44:27.726Z,66.07
2019-04-07T23:46:55.079Z,65.90
2019-04-07T23:49:22.537Z,56.93
2019-04-07T23:51:49.276Z,58.43
2019-04-07T23:54:16.452Z,65.87
2019-04-07T23:56:43.801Z,61.00
2019-04-07T23:59:11.860Z,57.83
